createdAt,value
2023-05-12T00:01:02.295Z,9.80
2023-05-12T00:03:29.016Z,9.70
2023-05-12T00:05:55.877Z,9.70
2023-05-12T00:08:22.906Z,9.70
2023-05-12T00:10:49.622Z,9.60
2023-05-12T00:13:16.395Z,9.60
2023-05-12T00:15:43.054Z,9.60
2023-05-12T00:18:09.836Z,9.60
2023-05-12T00:20:36.600Z,9.60
2023-05-12T00:23:03.881Z,9.60
2023-05-12T00:25:30.653Z,9.50
2023-05-12T00:27:57.297Z,9.50
2023-05-12T00:30:24.002Z,9.60
2023-05-12T00:32:50.852Z,9.60
2023-05-12T00:35:17.582Z,9.60
2023-05-12T00:37:44.218Z,9.60
2023-05-12T00:40:11.230Z,9.60
2023-05-12T00:42:37.875Z,9.50
2023-05-12T00:45:04.953Z,9.50
2023-05-12T00:47:32.339Z,9.50
2023-05-12T00:49:59.303Z,9.50
2023-05-12T00:52:26.648Z,9.50
2023-05-12T00:54:53.278Z,9.40
2023-05-12T00:57:19.976Z,9.40
2023-05-12T00:59:46.742Z,9.40
2023-05-12T01:02:13.506Z,9.40
2023-05-12T01:04:40.177Z,9.30
2023-05-12T01:07:09.926Z,9.30
2023-05-12T01:09:36.785Z,9.30
2023-05-12T01:12:03.542Z,9.30
2023-05-12T01:14:30.228Z,9.20
2023-05-12T01:16:59.328Z,9.20
2023-05-12T01:19:38.164Z,9.20
2023-05-12T01:22:04.887Z,9.30
2023-05-12T01:24:31.486Z,9.30
2023-05-12T01:26:58.286Z,9.10
2023-05-12T01:29:24.983Z,9.20
2023-05-12T01:31:51.815Z,9.20
2023-05-12T01:34:18.644Z,9.20
2023-05-12T01:36:45.509Z,9.10
2023-05-12T01:39:12.719Z,9.10
2023-05-12T01:41:39.438Z,9.10
2023-05-12T01:44:06.027Z,9.20
2023-05-12T01:46:32.716Z,9.20
2023-05-12T01:48:59.360Z,9.30
2023-05-12T01:51:26.076Z,9.40
2023-05-12T01:53:53.103Z,9.60
2023-05-12T01:56:20.187Z,9.80
2023-05-12T01:58:47.005Z,10.00
2023-05-12T02:01:13.666Z,10.10
2023-05-12T02:03:40.633Z,10.30
2023-05-12T02:06:07.344Z,10.40
2023-05-12T02:08:34.179Z,10.50
2023-05-12T02:11:07.356Z,10.60
2023-05-12T02:13:34.672Z,10.70
2023-05-12T02:16:01.810Z,10.80
2023-05-12T02:18:28.923Z,10.80
2023-05-12T02:20:55.587Z,10.90
2023-05-12T02:23:22.481Z,10.90
2023-05-12T02:25:49.165Z,11.00
2023-05-12T02:28:15.808Z,11.00
2023-05-12T02:30:49.365Z,11.00
2023-05-12T02:33:16.457Z,11.00
2023-05-12T02:35:46.631Z,11.10
2023-05-12T02:38:13.310Z,11.10
2023-05-12T02:40:39.989Z,11.10
2023-05-12T02:43:07.187Z,11.10
2023-05-12T02:45:33.951Z,11.10
2023-05-12T02:48:00.857Z,11.10
2023-05-12T02:50:27.676Z,11.10
2023-05-12T02:52:54.334Z,11.10
2023-05-12T02:55:20.997Z,11.10
2023-05-12T02:57:47.753Z,11.10
2023-05-12T03:00:14.813Z,11.10
2023-05-12T03:02:41.662Z,11.10
2023-05-12T03:05:09.219Z,11.10
2023-05-12T03:07:35.901Z,11.00
2023-05-12T03:10:02.598Z,11.00
2023-05-12T03:12:29.657Z,11.00
2023-05-12T03:14:56.798Z,11.00
2023-05-12T03:17:23.578Z,11.00
2023-05-12T03:19:50.335Z,11.10
2023-05-12T03:22:17.027Z,11.00
2023-05-12T03:24:43.834Z,11.00
2023-05-12T03:27:10.824Z,11.00
2023-05-12T03:29:37.609Z,11.00
2023-05-12T03:32:04.379Z,11.00
2023-05-12T03:34:31.490Z,10.90
2023-05-12T03:36:58.304Z,10.80
2023-05-12T03:39:25.144Z,10.70
2023-05-12T03:41:51.807Z,10.70
2023-05-12T03:44:18.866Z,10.70
2023-05-12T03:46:46.007Z,10.70
2023-05-12T03:49:12.791Z,10.70
2023-05-12T03:51:39.462Z,10.70
2023-05-12T03:54:06.044Z,10.70
2023-05-12T03:56:32.828Z,10.80
2023-05-12T03:58:59.507Z,10.80
2023-05-12T04:01:26.090Z,10.80
2023-05-12T04:03:53.025Z,10.90
2023-05-12T04:06:19.789Z,10.90
2023-05-12T04:08:46.421Z,10.90
2023-05-12T04:11:14.019Z,10.90
2023-05-12T04:13:40.637Z,10.90
2023-05-12T04:16:07.367Z,10.80
2023-05-12T04:18:35.774Z,10.80
2023-05-12T04:21:02.770Z,10.70
2023-05-12T04:23:29.414Z,10.70
2023-05-12T04:25:56.574Z,10.70
2023-05-12T04:28:23.153Z,10.70
2023-05-12T04:30:49.837Z,10.70
2023-05-12T04:33:16.465Z,10.70
2023-05-12T04:35:43.108Z,10.60
2023-05-12T04:38:09.976Z,10.70
2023-05-12T04:40:36.723Z,10.70
2023-05-12T04:43:03.721Z,10.70
2023-05-12T04:45:30.403Z,10.80
2023-05-12T04:47:57.153Z,10.80
2023-05-12T04:50:23.848Z,10.70
2023-05-12T04:52:51.168Z,10.80
2023-05-12T04:55:17.943Z,10.80
2023-05-12T04:57:44.702Z,10.80
2023-05-12T05:00:11.832Z,10.80
2023-05-12T05:02:39.367Z,10.80
2023-05-12T05:05:06.494Z,10.80
2023-05-12T05:07:33.324Z,10.80
2023-05-12T05:09:59.931Z,10.80
2023-05-12T05:12:26.551Z,10.70
2023-05-12T05:14:53.242Z,10.70
2023-05-12T05:17:19.900Z,10.70
2023-05-12T05:19:55.962Z,10.70
2023-05-12T05:22:24.925Z,10.70
2023-05-12T05:24:52.025Z,10.70
2023-05-12T05:27:19.170Z,10.70
2023-05-12T05:29:46.534Z,10.80
2023-05-12T05:32:13.149Z,10.80
2023-05-12T05:34:39.851Z,10.80
2023-05-12T05:37:06.555Z,10.80
2023-05-12T05:39:33.289Z,10.80
2023-05-12T05:41:59.987Z,10.80
2023-05-12T05:44:26.668Z,10.90
2023-05-12T05:46:53.647Z,10.90
2023-05-12T05:49:20.399Z,11.00
2023-05-12T05:51:47.186Z,11.00
2023-05-12T05:54:13.952Z,11.00
2023-05-12T05:56:40.673Z,11.10
2023-05-12T05:59:07.581Z,11.20
2023-05-12T06:01:34.364Z,11.20
2023-05-12T06:04:01.229Z,11.30
2023-05-12T06:06:28.814Z,11.30
2023-05-12T06:08:56.157Z,11.40
2023-05-12T06:11:22.923Z,11.50
2023-05-12T06:13:49.597Z,11.70
2023-05-12T06:16:16.211Z,11.80
2023-05-12T06:18:42.821Z,11.80
2023-05-12T06:21:09.611Z,11.80
2023-05-12T06:23:36.308Z,11.90
2023-05-12T06:26:03.247Z,12.00
2023-05-12T06:28:29.874Z,12.00
2023-05-12T06:30:56.611Z,12.00
2023-05-12T06:33:23.570Z,12.10
2023-05-12T06:35:50.214Z,12.20
2023-05-12T06:38:16.817Z,12.20
2023-05-12T06:40:43.484Z,12.30
2023-05-12T06:43:10.113Z,12.30
2023-05-12T06:45:36.754Z,12.40
2023-05-12T06:48:05.999Z,12.40
2023-05-12T06:50:32.813Z,12.50
2023-05-12T06:52:59.542Z,12.60
2023-05-12T06:55:26.272Z,12.60
2023-05-12T06:57:55.861Z,12.70
2023-05-12T07:00:23.375Z,12.80
2023-05-12T07:02:50.031Z,12.80
2023-05-12T07:05:16.944Z,12.70
2023-05-12T07:07:43.720Z,12.70
2023-05-12T07:10:10.483Z,12.70
2023-05-12T07:12:38.253Z,12.70
2023-05-12T07:15:05.119Z,12.90
2023-05-12T07:17:31.913Z,12.90
2023-05-12T07:19:58.632Z,13.00
2023-05-12T07:22:25.497Z,13.10
2023-05-12T07:24:52.257Z,13.20
2023-05-12T07:27:19.040Z,13.20
2023-05-12T07:29:45.727Z,13.20
2023-05-12T07:32:12.406Z,13.10
2023-05-12T07:34:39.013Z,13.00
2023-05-12T07:37:06.473Z,13.10
2023-05-12T07:39:33.250Z,13.30
2023-05-12T07:42:00.000Z,13.40
2023-05-12T07:44:26.988Z,13.50
2023-05-12T07:46:54.354Z,13.50
2023-05-12T07:49:23.395Z,13.60
2023-05-12T07:51:50.174Z,13.60
2023-05-12T07:54:16.842Z,13.60
2023-05-12T07:56:43.531Z,13.70
2023-05-12T07:59:10.911Z,13.90
2023-05-12T08:01:37.527Z,13.90
2023-05-12T08:04:04.717Z,13.80
2023-05-12T08:06:31.985Z,13.70
2023-05-12T08:08:58.766Z,13.80
2023-05-12T08:11:26.107Z,13.70
2023-05-12T08:13:53.754Z,13.70
2023-05-12T08:16:20.674Z,13.80
2023-05-12T08:18:47.413Z,13.90
2023-05-12T08:21:14.077Z,14.10
2023-05-12T08:23:40.900Z,14.20
2023-05-12T08:26:07.473Z,14.00
2023-05-12T08:28:34.232Z,13.90
2023-05-12T08:31:02.743Z,14.00
2023-05-12T08:33:31.335Z,14.00
2023-05-12T08:35:58.025Z,13.90
2023-05-12T08:38:24.758Z,13.80
2023-05-12T08:41:03.223Z,13.90
2023-05-12T08:43:32.479Z,14.00
2023-05-12T08:45:59.151Z,14.20
2023-05-12T08:48:27.618Z,14.40
2023-05-12T08:50:54.265Z,14.40
2023-05-12T08:53:22.270Z,14.50
2023-05-12T08:57:08.328Z,14.40
2023-05-12T08:58:41.783Z,14.40
2023-05-12T09:01:09.123Z,14.40
2023-05-12T09:03:36.194Z,14.40
2023-05-12T09:06:03.632Z,14.20
2023-05-12T09:08:31.734Z,14.30
2023-05-12T09:10:58.642Z,14.40
2023-05-12T09:13:40.421Z,14.40
2023-05-12T09:16:08.015Z,14.30
2023-05-12T09:18:54.668Z,14.30
2023-05-12T09:21:21.594Z,14.10
2023-05-12T09:23:54.683Z,14.10
2023-05-12T09:26:22.740Z,14.20
2023-05-12T09:28:50.000Z,14.30
2023-05-12T09:31:17.367Z,14.50
2023-05-12T09:33:44.201Z,14.60
2023-05-12T09:36:11.775Z,14.50
2023-05-12T09:38:38.433Z,14.60
2023-05-12T09:41:05.129Z,14.60
2023-05-12T09:43:32.067Z,14.60
2023-05-12T09:46:04.266Z,14.70
2023-05-12T09:48:30.871Z,14.70
2023-05-12T09:50:57.731Z,14.80
2023-05-12T09:53:24.840Z,14.60
2023-05-12T09:55:51.509Z,14.40
2023-05-12T09:58:18.790Z,14.40
2023-05-12T10:01:02.332Z,14.10
2023-05-12T10:03:32.269Z,14.10
2023-05-12T10:06:00.789Z,13.80
2023-05-12T10:08:30.097Z,13.70
2023-05-12T10:10:56.736Z,13.60
2023-05-12T10:13:24.107Z,13.70
2023-05-12T10:15:50.688Z,13.60
2023-05-12T10:18:17.651Z,13.60
2023-05-12T10:20:44.846Z,13.50
2023-05-12T10:23:13.433Z,13.60
2023-05-12T10:25:43.956Z,13.60
2023-05-12T10:28:10.674Z,13.40
2023-05-12T10:30:38.384Z,13.40
2023-05-12T10:33:05.712Z,13.20
2023-05-12T10:35:33.842Z,13.00
2023-05-12T10:38:10.110Z,12.90
2023-05-12T10:40:37.491Z,12.70
2023-05-12T10:43:04.839Z,12.70
2023-05-12T10:45:37.556Z,12.60
2023-05-12T10:48:05.114Z,12.60
2023-05-12T10:50:31.840Z,12.50
2023-05-12T10:52:58.471Z,12.50
2023-05-12T10:55:32.196Z,12.60
2023-05-12T10:58:12.570Z,12.50
2023-05-12T11:00:50.677Z,12.40
2023-05-12T11:03:19.644Z,12.40
2023-05-12T11:05:47.174Z,12.40
2023-05-12T11:08:15.932Z,12.40
2023-05-12T11:10:43.473Z,12.30
2023-05-12T11:13:10.148Z,12.30
2023-05-12T11:15:36.802Z,12.30
2023-05-12T11:18:04.096Z,12.20
2023-05-12T11:20:31.228Z,12.30
2023-05-12T11:22:58.189Z,12.30
2023-05-12T11:25:26.254Z,12.40
2023-05-12T11:27:52.991Z,12.40
2023-05-12T11:30:19.892Z,12.40
2023-05-12T11:32:46.916Z,12.30
2023-05-12T11:35:17.442Z,12.40
2023-05-12T11:37:44.452Z,12.30
2023-05-12T11:40:21.915Z,12.20
2023-05-12T11:42:51.404Z,12.20
2023-05-12T11:45:29.454Z,12.10
2023-05-12T11:48:12.714Z,12.00
2023-05-12T11:50:40.093Z,12.00
2023-05-12T11:53:09.740Z,12.00
2023-05-12T11:55:36.363Z,12.00
2023-05-12T11:58:03.654Z,11.90
2023-05-12T12:00:31.300Z,12.00
2023-05-12T12:03:11.821Z,12.10
2023-05-12T12:05:39.314Z,12.10
2023-05-12T12:08:06.846Z,12.10
2023-05-12T12:10:33.832Z,12.10
2023-05-12T12:13:01.345Z,12.10
2023-05-12T12:15:28.621Z,12.10
2023-05-12T12:17:55.578Z,12.00
2023-05-12T12:20:24.670Z,11.90
2023-05-12T12:22:51.955Z,11.90
2023-05-12T12:25:19.820Z,11.90
2023-05-12T12:27:46.935Z,12.00
2023-05-12T12:30:14.558Z,12.00
2023-05-12T12:32:41.791Z,12.10
2023-05-12T12:35:09.005Z,12.20
2023-05-12T12:37:36.032Z,12.20
2023-05-12T12:40:08.035Z,12.20
2023-05-12T12:42:36.023Z,12.20
2023-05-12T12:45:05.837Z,12.20
2023-05-12T12:47:33.254Z,12.20
2023-05-12T12:49:59.943Z,12.30
2023-05-12T12:52:26.937Z,12.30
2023-05-12T12:54:53.754Z,12.30
2023-05-12T12:57:22.177Z,12.30
2023-05-12T12:59:49.527Z,12.30
2023-05-12T13:02:16.857Z,12.20
2023-05-12T13:04:43.666Z,12.10
2023-05-12T13:07:10.376Z,12.10
2023-05-12T13:09:37.065Z,12.10
2023-05-12T13:12:03.885Z,12.10
2023-05-12T13:14:30.705Z,12.00
2023-05-12T13:16:57.735Z,11.90
2023-05-12T13:19:24.540Z,11.90
2023-05-12T13:21:51.188Z,11.90
2023-05-12T13:24:17.758Z,11.90
2023-05-12T13:26:44.764Z,11.90
2023-05-12T13:29:11.604Z,11.90
2023-05-12T13:31:38.819Z,11.80
2023-05-12T13:34:05.461Z,11.80
2023-05-12T13:36:34.445Z,11.80
2023-05-12T13:39:02.748Z,11.80
2023-05-12T13:41:29.608Z,11.70
2023-05-12T13:43:56.219Z,11.70
2023-05-12T13:46:22.970Z,11.70
2023-05-12T13:48:51.392Z,11.70
2023-05-12T13:51:18.364Z,11.70
2023-05-12T13:53:45.292Z,11.70
2023-05-12T13:56:12.019Z,11.70
2023-05-12T13:58:38.674Z,11.70
2023-05-12T14:01:07.259Z,11.70
2023-05-12T14:03:37.578Z,11.70
2023-05-12T14:06:04.790Z,11.70
2023-05-12T14:08:31.526Z,11.70
2023-05-12T14:10:58.344Z,11.70
2023-05-12T14:13:26.195Z,11.70
2023-05-12T14:15:53.542Z,11.60
2023-05-12T14:18:20.887Z,11.60
2023-05-12T14:20:47.687Z,11.50
2023-05-12T14:23:14.380Z,11.50
2023-05-12T14:25:41.142Z,11.50
2023-05-12T14:28:07.864Z,11.50
2023-05-12T14:30:35.311Z,11.60
2023-05-12T14:33:02.379Z,11.60
2023-05-12T14:35:29.481Z,11.60
2023-05-12T14:37:56.739Z,11.60
2023-05-12T14:40:23.568Z,11.60
2023-05-12T14:42:50.298Z,11.70
2023-05-12T14:45:17.122Z,11.80
2023-05-12T14:47:43.771Z,11.70
2023-05-12T14:50:10.770Z,11.80
2023-05-12T14:52:40.400Z,11.80
2023-05-12T14:55:11.469Z,11.80
2023-05-12T14:57:38.566Z,11.80
2023-05-12T15:00:08.670Z,11.70
2023-05-12T15:02:35.432Z,11.80
2023-05-12T15:05:02.158Z,11.80
2023-05-12T15:07:28.848Z,11.90
2023-05-12T15:09:55.658Z,11.90
2023-05-12T15:12:22.400Z,11.90
2023-05-12T15:14:49.087Z,11.90
2023-05-12T15:17:16.121Z,11.90
2023-05-12T15:19:42.914Z,11.90
2023-05-12T15:22:09.478Z,11.90
2023-05-12T15:24:36.090Z,12.00
2023-05-12T15:27:02.734Z,12.00
2023-05-12T15:29:29.438Z,12.00
2023-05-12T15:31:56.288Z,11.90
2023-05-12T15:34:23.583Z,12.00
2023-05-12T15:36:50.805Z,12.00
2023-05-12T15:39:17.856Z,12.00
2023-05-12T15:41:44.567Z,12.00
2023-05-12T15:44:11.248Z,12.00
2023-05-12T15:46:38.011Z,12.00
2023-05-12T15:49:04.848Z,12.00
2023-05-12T15:51:31.743Z,12.00
2023-05-12T15:53:58.348Z,12.00
2023-05-12T15:56:24.985Z,12.10
2023-05-12T15:58:51.577Z,12.10
2023-05-12T16:01:18.469Z,12.20
2023-05-12T16:03:46.063Z,12.10
2023-05-12T16:06:13.266Z,12.30
2023-05-12T16:08:39.988Z,12.30
2023-05-12T16:11:06.756Z,12.30
2023-05-12T16:13:33.415Z,12.20
2023-05-12T16:16:00.070Z,12.20
2023-05-12T16:18:26.960Z,12.20
2023-05-12T16:20:53.819Z,12.20
2023-05-12T16:23:20.585Z,12.20
2023-05-12T16:25:47.252Z,12.20
2023-05-12T16:28:14.863Z,12.20
2023-05-12T16:30:41.501Z,12.10
2023-05-12T16:33:08.540Z,12.10
2023-05-12T16:35:35.286Z,12.10
2023-05-12T16:38:02.067Z,12.10
2023-05-12T16:40:28.764Z,12.10
2023-05-12T16:42:55.899Z,12.00
2023-05-12T16:45:22.881Z,12.00
2023-05-12T16:47:49.907Z,12.00
2023-05-12T16:50:16.656Z,12.10
2023-05-12T16:52:43.556Z,12.00
2023-05-12T16:55:11.337Z,12.00
2023-05-12T16:57:40.332Z,11.90
2023-05-12T17:00:09.519Z,12.00
2023-05-12T17:02:36.429Z,12.00
2023-05-12T17:05:03.168Z,12.00
2023-05-12T17:07:30.450Z,12.00
2023-05-12T17:09:57.128Z,11.90
2023-05-12T17:12:23.830Z,11.90
2023-05-12T17:15:03.432Z,11.90
2023-05-12T17:17:33.531Z,11.90
2023-05-12T17:20:00.619Z,11.90
2023-05-12T17:22:28.120Z,11.90
2023-05-12T17:24:54.803Z,11.90
2023-05-12T17:27:21.559Z,11.90
2023-05-12T17:29:48.270Z,11.80
2023-05-12T17:32:15.080Z,11.80
2023-05-12T17:34:41.768Z,11.80
2023-05-12T17:37:08.443Z,11.80
2023-05-12T17:39:35.129Z,11.80
2023-05-12T17:42:01.701Z,11.80
2023-05-12T17:44:29.939Z,11.80
2023-05-12T17:46:56.729Z,11.80
2023-05-12T17:49:23.422Z,11.70
2023-05-12T17:51:50.100Z,11.70
2023-05-12T17:54:16.688Z,11.70
2023-05-12T17:56:44.729Z,11.70
2023-05-12T17:59:12.354Z,11.70
2023-05-12T18:01:39.654Z,11.70
2023-05-12T18:04:06.427Z,11.70
2023-05-12T18:06:33.835Z,11.60
2023-05-12T18:09:00.471Z,11.60
2023-05-12T18:11:29.062Z,11.60
2023-05-12T18:13:56.080Z,11.60
2023-05-12T18:16:29.115Z,11.50
2023-05-12T18:18:56.529Z,11.50
2023-05-12T18:21:23.614Z,11.50
2023-05-12T18:23:50.375Z,11.50
2023-05-12T18:26:17.011Z,11.50
2023-05-12T18:28:43.670Z,11.50
2023-05-12T18:31:15.499Z,11.50
2023-05-12T18:33:45.586Z,11.50
2023-05-12T18:36:13.037Z,11.50
2023-05-12T18:38:39.955Z,11.40
2023-05-12T18:41:07.090Z,11.50
2023-05-12T18:43:34.912Z,11.40
2023-05-12T18:46:01.786Z,11.40
2023-05-12T18:48:28.532Z,11.30
2023-05-12T18:50:55.658Z,11.30
2023-05-12T18:53:22.363Z,11.30
2023-05-12T18:55:49.857Z,11.30
2023-05-12T18:58:17.062Z,11.30
2023-05-12T19:00:43.936Z,11.30
2023-05-12T19:03:10.662Z,11.30
2023-05-12T19:05:37.876Z,11.20
2023-05-12T19:08:04.779Z,11.30
2023-05-12T19:10:31.416Z,11.30
2023-05-12T19:12:58.074Z,11.30
2023-05-12T19:15:24.757Z,11.30
2023-05-12T19:17:51.389Z,11.20
2023-05-12T19:20:18.306Z,11.30
2023-05-12T19:22:46.297Z,11.30
2023-05-12T19:25:17.672Z,11.30
2023-05-12T19:27:44.766Z,11.30
2023-05-12T19:30:11.958Z,11.30
2023-05-12T19:32:39.950Z,11.20
2023-05-12T19:35:07.001Z,11.20
2023-05-12T19:37:33.723Z,11.20
2023-05-12T19:40:00.458Z,11.20
2023-05-12T19:42:30.288Z,11.10
2023-05-12T19:44:57.765Z,11.10
2023-05-12T19:47:26.322Z,11.10
2023-05-12T19:49:56.138Z,11.20
2023-05-12T19:52:24.747Z,11.20
2023-05-12T19:54:51.710Z,11.20
2023-05-12T19:57:18.804Z,11.20
2023-05-12T19:59:45.563Z,11.20
2023-05-12T20:02:13.675Z,11.20
2023-05-12T20:04:40.470Z,11.10
2023-05-12T20:07:07.143Z,11.20
2023-05-12T20:09:33.736Z,11.10
2023-05-12T20:12:00.532Z,11.10
2023-05-12T20:14:27.313Z,11.10
2023-05-12T20:16:55.162Z,11.10
2023-05-12T20:19:21.770Z,11.10
2023-05-12T20:21:48.486Z,11.10
2023-05-12T20:24:15.170Z,11.10
2023-05-12T20:26:41.958Z,11.00
2023-05-12T20:29:08.981Z,11.10
2023-05-12T20:31:35.760Z,11.10
2023-05-12T20:34:02.725Z,11.00
2023-05-12T20:36:29.350Z,11.00
2023-05-12T20:38:56.143Z,11.00
2023-05-12T20:41:22.831Z,11.00
2023-05-12T20:43:49.661Z,11.00
2023-05-12T20:46:16.429Z,11.00
2023-05-12T20:48:43.040Z,11.00
2023-05-12T20:51:10.373Z,11.00
2023-05-12T20:53:37.030Z,11.00
2023-05-12T20:56:03.657Z,11.00
2023-05-12T20:58:30.387Z,11.00
2023-05-12T21:00:56.976Z,10.90
2023-05-12T21:03:24.383Z,10.90
2023-05-12T21:05:51.163Z,10.90
2023-05-12T21:08:17.960Z,10.90
2023-05-12T21:10:44.692Z,10.90
2023-05-12T21:13:11.870Z,10.90
2023-05-12T21:15:38.475Z,10.90
2023-05-12T21:18:05.198Z,11.00
2023-05-12T21:20:32.029Z,10.90
2023-05-12T21:22:58.751Z,11.00
2023-05-12T21:25:25.977Z,10.90
2023-05-12T21:27:53.143Z,10.90
2023-05-12T21:30:20.129Z,11.00
2023-05-12T21:32:47.244Z,10.90
2023-05-12T21:35:13.985Z,11.00
2023-05-12T21:37:40.766Z,10.90
2023-05-12T21:40:08.269Z,10.90
2023-05-12T21:42:35.024Z,10.90
2023-05-12T21:45:01.742Z,10.90
2023-05-12T21:47:28.770Z,10.90
2023-05-12T21:49:55.680Z,10.80
2023-05-12T21:52:25.324Z,10.80
2023-05-12T21:54:52.569Z,10.80
2023-05-12T21:57:19.681Z,10.80
2023-05-12T21:59:47.036Z,10.80
2023-05-12T22:02:13.972Z,10.80
2023-05-12T22:04:40.691Z,10.80
2023-05-12T22:07:07.870Z,10.80
2023-05-12T22:09:34.548Z,10.80
2023-05-12T22:12:01.200Z,10.90
2023-05-12T22:14:27.937Z,10.90
2023-05-12T22:16:57.913Z,10.90
2023-05-12T22:19:24.777Z,10.90
2023-05-12T22:21:51.799Z,10.90
2023-05-12T22:24:18.517Z,10.90
2023-05-12T22:26:45.279Z,10.90
2023-05-12T22:29:11.929Z,10.90
2023-05-12T22:31:38.797Z,10.90
2023-05-12T22:34:06.601Z,10.90
2023-05-12T22:36:33.316Z,10.80
2023-05-12T22:39:00.219Z,10.80
2023-05-12T22:41:29.449Z,10.80
2023-05-12T22:43:56.372Z,10.70
2023-05-12T22:46:23.044Z,10.80
2023-05-12T22:48:50.921Z,10.70
2023-05-12T22:51:17.536Z,10.70
2023-05-12T22:53:44.285Z,10.70
2023-05-12T22:56:11.148Z,10.70
2023-05-12T22:58:37.823Z,10.70
2023-05-12T23:01:04.695Z,10.70
2023-05-12T23:03:33.051Z,10.70
2023-05-12T23:05:59.831Z,10.70
2023-05-12T23:08:26.487Z,10.70
2023-05-12T23:10:53.170Z,10.70
2023-05-12T23:13:20.006Z,10.70
2023-05-12T23:15:46.832Z,10.70
2023-05-12T23:18:13.467Z,10.70
2023-05-12T23:20:40.194Z,10.60
2023-05-12T23:23:07.101Z,10.70
2023-05-12T23:25:35.235Z,10.80
2023-05-12T23:28:01.922Z,10.80
2023-05-12T23:30:32.108Z,10.70
2023-05-12T23:32:59.091Z,10.60
2023-05-12T23:35:26.426Z,10.60
2023-05-12T23:37:53.358Z,10.60
2023-05-12T23:40:20.383Z,10.60
2023-05-12T23:42:47.171Z,10.60
2023-05-12T23:45:13.984Z,10.60
2023-05-12T23:47:40.976Z,10.50
2023-05-12T23:50:08.392Z,10.60
2023-05-12T23:52:35.680Z,10.60
2023-05-12T23:55:02.871Z,10.60
2023-05-12T23:57:29.573Z,10.60
2023-05-12T23:59:56.273Z,10.60
